Orwell — V7KG8 — position and weather

sailwx.info

Track history (hours):
 
Tides and Currents Weather Stations Pressure Air Temp Water Temp Dewpoint Dewpoint Depression Visibility Wind Speed Wind Dir Waves Ship Positions

Orwell

Last reported at 2018-Apr-06 22:29 UTC. Time now 2018-Apr-19 23:16 UTC.
Position N 27°36' W 015°14'.
Warning: this ship's position is 13 days out of date.

Length 183 m; draft 11 m.

Type: Tanker. MMSI: 538006161.

Date/timePositionNaut miles runAvg speedWind from/ knotsBaromVisibWave heightAir tempDewpointWater temp
2018-Apr-06 22:29N 27°36' W 015°14'612.7
2018-Apr-06 22:00N 27°42' W 015°12'613.0
2018-Apr-06 21:30N 27°48' W 015°09'713.3
2018-Apr-06 21:00N 27°54' W 015°07'713.4
2018-Apr-06 20:30N 28°00' W 015°04'713.2
2018-Apr-06 20:00N 28°06' W 015°01'613.0
2018-Apr-06 19:30N 28°12' W 014°58'613.0
2018-Apr-06 19:01N 28°18' W 014°56'713.0
2018-Apr-06 18:31N 28°24' W 014°52'712.9
2018-Apr-06 18:00N 28°30' W 014°48'612.8
2018-Apr-06 17:30N 28°35' W 014°44'712.7
2018-Apr-06 16:59N 28°41' W 014°40'  
2018-Apr-04 12:45N 35°58' W 005°34'410.4
2018-Apr-04 12:24N 35°59' W 005°30'4 9.6
2018-Apr-04 12:00N 36°01' W 005°25'5 9.5
2018-Apr-04 11:28N 36°01' W 005°19'26311.5
2018-Apr-03 12:30N 36°51' E 000°02'12811.9
2018-Apr-03 01:44N 37°21' E 002°39'1711.9
2018-Apr-03 00:20N 37°25' E 002°59'1512.0
2018-Apr-02 23:07N 37°28' E 003°17'112.0
2018-Apr-02 23:00N 37°29' E 003°19'1312.6
2018-Apr-02 21:59N 37°29' E 003°35'612.6
2018-Apr-02 21:30N 37°29' E 003°43'612.4
2018-Apr-02 21:00N 37°29' E 003°51'611.9
2018-Apr-02 20:30N 37°29' E 003°58'612.0
2018-Apr-02 19:59N 37°28' E 004°06'612.4
2018-Apr-02 19:30N 37°28' E 004°13'1912.5
2018-Apr-02 18:00N 37°28' E 004°37'812.2
2018-Apr-02 17:22N 37°28' E 004°47'2212.1
2018-Apr-02 15:32N 37°28' E 005°15'011.7
2018-Apr-02 15:30N 37°28' E 005°15'611.6
2018-Apr-02 14:59N 37°28' E 005°23'1111.6
2018-Apr-02 14:04N 37°27' E 005°36'111.7
2018-Apr-02 13:58N 37°27' E 005°38'611.8
2018-Apr-02 13:29N 37°27' E 005°45'  
Track history (hours):
 
Tides and Currents Weather Stations Pressure Air Temp Water Temp Dewpoint Dewpoint Depression Visibility Wind Speed Wind Dir Waves Ship Positions

Orwell

Last reported at 2018-Apr-06 22:29 UTC. Time now 2018-Apr-19 23:16 UTC.
Position N 27°36' W 015°14'.
Warning: this ship's position is 13 days out of date.

Length 183 m; draft 11 m.

Type: Tanker. MMSI: 538006161.

Date/timePositionNaut miles runAvg speedWind from/ knotsBaromVisibWave heightAir tempDewpointWater temp
2018-Apr-06 22:29N 27°36' W 015°14'612.7
2018-Apr-06 22:00N 27°42' W 015°12'613.0
2018-Apr-06 21:30N 27°48' W 015°09'713.3
2018-Apr-06 21:00N 27°54' W 015°07'713.4
2018-Apr-06 20:30N 28°00' W 015°04'713.2
2018-Apr-06 20:00N 28°06' W 015°01'613.0
2018-Apr-06 19:30N 28°12' W 014°58'613.0
2018-Apr-06 19:01N 28°18' W 014°56'713.0
2018-Apr-06 18:31N 28°24' W 014°52'712.9
2018-Apr-06 18:00N 28°30' W 014°48'612.8
2018-Apr-06 17:30N 28°35' W 014°44'712.7
2018-Apr-06 16:59N 28°41' W 014°40'  
2018-Apr-04 12:45N 35°58' W 005°34'410.4
2018-Apr-04 12:24N 35°59' W 005°30'4 9.6
2018-Apr-04 12:00N 36°01' W 005°25'5 9.5
2018-Apr-04 11:28N 36°01' W 005°19'26311.5
2018-Apr-03 12:30N 36°51' E 000°02'12811.9
2018-Apr-03 01:44N 37°21' E 002°39'1711.9
2018-Apr-03 00:20N 37°25' E 002°59'1512.0
2018-Apr-02 23:07N 37°28' E 003°17'112.0
2018-Apr-02 23:00N 37°29' E 003°19'1312.6
2018-Apr-02 21:59N 37°29' E 003°35'612.6
2018-Apr-02 21:30N 37°29' E 003°43'612.4
2018-Apr-02 21:00N 37°29' E 003°51'611.9
2018-Apr-02 20:30N 37°29' E 003°58'612.0
2018-Apr-02 19:59N 37°28' E 004°06'612.4
2018-Apr-02 19:30N 37°28' E 004°13'1912.5
2018-Apr-02 18:00N 37°28' E 004°37'812.2
2018-Apr-02 17:22N 37°28' E 004°47'2212.1
2018-Apr-02 15:32N 37°28' E 005°15'011.7
2018-Apr-02 15:30N 37°28' E 005°15'611.6
2018-Apr-02 14:59N 37°28' E 005°23'1111.6
2018-Apr-02 14:04N 37°27' E 005°36'111.7
2018-Apr-02 13:58N 37°27' E 005°38'611.8
2018-Apr-02 13:29N 37°27' E 005°45'  

Dump ship's entire track history